Terminal Aerodrome Forecast
Issued by NWS

Home | Current Version | Previous Version | Text Only | Print | Product List | Glossary On
Versions: 1 2 3 4 5 6 7 8 9 10 11 12 13 14 15 16 17 18
000
FTUS43 KJKL 222300
TAFSME
TAF
KSME 222322Z 2300/2324 25008G14KT P6SM SCT250
     FM230400 VRB03KT 4SM BR VCSH SCT020 BKN100
     FM231500 VRB05KT P6SM SHRA VCTS SCT030CB BKN100=

USA.gov is the U.S. government's official web portal to all federal, state and local government web resources and services.